Time;durP1;ratioP1;P1;durP2;ratioP2;P2;SDS_P1;SDS_P2;PMS_P1;PMS_P2;Temp;Humidity;BMP_temperature;BMP_pressure;BME280_temperature;BME280_humidity;BME280_pressure;Samples;Min_cycle;Max_cycle;Signal;HPM_P1;HPM_P2
2024/01/29 00:00:15;;;;;;;12.40;7.25;;;;;;;;;;5090667;28;20095;-51
2024/01/29 00:02:41;;;;;;;12.05;7.05;;;;;;;;;;5107174;28;20089;-47
2024/01/29 00:05:07;;;;;;;24.35;21.83;;;;;;;;;;5108354;28;20036;-49
2024/01/29 00:07:33;;;;;;;12.02;7.05;;;;;;;;;;5108166;28;20059;-49
2024/01/29 00:09:59;;;;;;;11.95;7.00;;;;;;;;;;5108290;28;20059;-49
2024/01/29 00:12:25;;;;;;;11.77;6.88;;;;;;;;;;5107403;28;20109;-49
2024/01/29 00:14:52;;;;;;;12.18;7.13;;;;;;;;;;5107250;28;20430;-53
2024/01/29 00:17:18;;;;;;;11.95;7.00;;;;;;;;;;5108137;28;20501;-48
2024/01/29 00:19:44;;;;;;;11.55;6.75;;;;;;;;;;5108006;28;20023;-48
2024/01/29 00:22:10;;;;;;;12.30;7.13;;;;;;;;;;5107575;28;20030;-48
2024/01/29 00:24:36;;;;;;;12.00;7.03;;;;;;;;;;5108278;28;20027;-51
2024/01/29 00:27:02;;;;;;;12.63;7.43;;;;;;;;;;5094559;28;20490;-54
2024/01/29 00:29:28;;;;;;;12.15;7.07;;;;;;;;;;5087342;28;20024;-50
2024/01/29 00:31:54;;;;;;;12.07;7.03;;;;;;;;;;5087069;28;20035;-50
2024/01/29 00:34:20;;;;;;;11.93;7.00;;;;;;;;;;5089576;28;20493;-51
2024/01/29 00:36:46;;;;;;;12.07;7.05;;;;;;;;;;5090998;28;20020;-52
2024/01/29 00:39:13;;;;;;;12.05;7.07;;;;;;;;;;5104402;28;20020;-49
2024/01/29 00:41:39;;;;;;;12.27;7.10;;;;;;;;;;5110249;28;20114;-51
2024/01/29 00:44:05;;;;;;;12.30;7.30;;;;;;;;;;5111060;28;20429;-49
2024/01/29 00:46:31;;;;;;;12.35;7.20;;;;;;;;;;5110417;28;20034;-52
2024/01/29 00:48:57;;;;;;;12.15;7.13;;;;;;;;;;5111759;28;20033;-53
2024/01/29 00:51:23;;;;;;;12.48;7.28;;;;;;;;;;5109458;28;20031;-52
2024/01/29 00:53:49;;;;;;;11.98;7.00;;;;;;;;;;5111312;28;20023;-48
2024/01/29 00:56:15;;;;;;;12.05;7.03;;;;;;;;;;5111229;28;20470;-48
2024/01/29 00:58:43;;;;;;;11.95;6.95;;;;;;;;;;5110238;28;20110;-50
2024/01/29 01:01:10;;;;;;;11.60;6.80;;;;;;;;;;5111122;28;20028;-49
2024/01/29 01:03:36;;;;;;;11.70;6.90;;;;;;;;;;5111064;28;20039;-50
2024/01/29 01:06:02;;;;;;;11.80;6.90;;;;;;;;;;5109980;28;20033;-50
2024/01/29 01:08:28;;;;;;;11.60;7.00;;;;;;;;;;5111095;28;20032;-48
2024/01/29 01:10:54;;;;;;;11.95;6.97;;;;;;;;;;5109282;28;20027;-52
2024/01/29 01:13:20;;;;;;;11.82;6.90;;;;;;;;;;5108885;28;20409;-51
2024/01/29 01:15:46;;;;;;;12.10;7.10;;;;;;;;;;5110633;28;20043;-52
2024/01/29 01:18:12;;;;;;;11.23;6.57;;;;;;;;;;5110883;28;20538;-50
2024/01/29 01:20:38;;;;;;;11.77;6.88;;;;;;;;;;5110873;28;20020;-46
2024/01/29 01:23:04;;;;;;;11.40;6.70;;;;;;;;;;5109060;28;20024;-50
2024/01/29 01:25:30;;;;;;;11.70;6.88;;;;;;;;;;5110870;28;20027;-52
2024/01/29 01:27:56;;;;;;;11.77;6.90;;;;;;;;;;5109574;28;20038;-50
2024/01/29 01:30:22;;;;;;;11.98;6.95;;;;;;;;;;5110630;28;20051;-52
2024/01/29 01:32:48;;;;;;;11.50;6.70;;;;;;;;;;5109989;28;20470;-52
2024/01/29 01:35:14;;;;;;;11.90;6.93;;;;;;;;;;5110749;28;20550;-50
2024/01/29 01:37:40;;;;;;;12.30;7.18;;;;;;;;;;5109593;28;20473;-49
2024/01/29 01:40:07;;;;;;;12.50;7.30;;;;;;;;;;5110932;28;20023;-55
2024/01/29 01:42:33;;;;;;;12.23;7.13;;;;;;;;;;5109969;28;20024;-51
2024/01/29 01:44:59;;;;;;;11.68;6.82;;;;;;;;;;5110933;28;20046;-46
2024/01/29 01:47:25;;;;;;;12.20;7.18;;;;;;;;;;5110699;28;20031;-48
2024/01/29 01:49:51;;;;;;;12.13;7.05;;;;;;;;;;5110614;28;20465;-46
2024/01/29 01:52:18;;;;;;;11.57;6.78;;;;;;;;;;5107664;28;20431;-46
2024/01/29 01:54:45;;;;;;;11.90;7.00;;;;;;;;;;5110527;28;20066;-54
2024/01/29 01:57:11;;;;;;;11.55;6.80;;;;;;;;;;5109395;28;20028;-50
2024/01/29 01:59:39;;;;;;;11.70;6.90;;;;;;;;;;5110757;28;20027;-51
2024/01/29 02:02:05;;;;;;;12.40;7.28;;;;;;;;;;5110148;28;20107;-51
2024/01/29 02:04:31;;;;;;;12.40;7.20;;;;;;;;;;5109372;28;20118;-52
2024/01/29 02:06:58;;;;;;;11.45;6.72;;;;;;;;;;5109402;28;20032;-48
2024/01/29 02:09:24;;;;;;;12.07;7.05;;;;;;;;;;5111127;28;20042;-49
2024/01/29 02:11:50;;;;;;;11.52;6.78;;;;;;;;;;5113702;28;20560;-52
2024/01/29 02:14:16;;;;;;;11.45;6.72;;;;;;;;;;5114273;28;20027;-48
2024/01/29 02:16:42;;;;;;;11.40;6.70;;;;;;;;;;5114446;28;20397;-54
2024/01/29 02:19:14;;;;;;;11.48;6.72;;;;;;;;;;5113768;28;20024;-48
2024/01/29 02:21:40;;;;;;;11.45;6.68;;;;;;;;;;5114263;28;20019;-49
2024/01/29 02:24:06;;;;;;;11.43;6.72;;;;;;;;;;5114230;28;20523;-48
2024/01/29 02:26:32;;;;;;;11.60;6.80;;;;;;;;;;5114093;28;20050;-47
2024/01/29 02:28:58;;;;;;;11.77;6.85;;;;;;;;;;5114085;28;20473;-51
2024/01/29 02:31:24;;;;;;;11.93;7.00;;;;;;;;;;5113309;28;20020;-50
2024/01/29 02:33:50;;;;;;;11.60;6.80;;;;;;;;;;5113844;28;20477;-50
2024/01/29 02:36:16;;;;;;;11.52;6.80;;;;;;;;;;5114163;28;20026;-48
2024/01/29 02:38:42;;;;;;;11.50;6.72;;;;;;;;;;5114079;28;20019;-50
2024/01/29 02:41:09;;;;;;;11.73;6.88;;;;;;;;;;5113903;28;20160;-51
2024/01/29 02:43:35;;;;;;;11.73;6.90;;;;;;;;;;5112037;28;20028;-48
2024/01/29 02:46:01;;;;;;;11.70;6.80;;;;;;;;;;5112487;28;20020;-48
2024/01/29 02:48:27;;;;;;;11.60;6.80;;;;;;;;;;5112284;28;20114;-48
2024/01/29 02:50:53;;;;;;;11.10;6.53;;;;;;;;;;5113457;28;20027;-49
2024/01/29 02:53:19;;;;;;;11.68;6.85;;;;;;;;;;5112801;28;20024;-49
2024/01/29 02:55:45;;;;;;;11.30;6.63;;;;;;;;;;5112287;28;20024;-52
2024/01/29 02:58:11;;;;;;;11.52;6.80;;;;;;;;;;5113514;28;20072;-50
2024/01/29 03:00:37;;;;;;;12.00;7.00;;;;;;;;;;5113628;28;20035;-49
2024/01/29 03:03:03;;;;;;;11.80;6.90;;;;;;;;;;5111062;28;20031;-49
2024/01/29 03:05:29;;;;;;;11.45;6.70;;;;;;;;;;5112274;28;20028;-50
2024/01/29 03:07:55;;;;;;;11.75;6.88;;;;;;;;;;5111961;28;20046;-54
2024/01/29 03:10:21;;;;;;;11.60;6.80;;;;;;;;;;5112064;28;20016;-49
2024/01/29 03:12:47;;;;;;;11.80;6.95;;;;;;;;;;5111280;28;20028;-51
2024/01/29 03:15:13;;;;;;;11.45;6.72;;;;;;;;;;5113406;28;20103;-49
2024/01/29 03:17:39;;;;;;;11.82;6.90;;;;;;;;;;5113279;28;20020;-50
2024/01/29 03:20:05;;;;;;;11.68;6.85;;;;;;;;;;5112490;28;20019;-50
2024/01/29 03:22:31;;;;;;;11.70;6.82;;;;;;;;;;5110792;28;20062;-51
2024/01/29 03:24:57;;;;;;;12.48;7.20;;;;;;;;;;5113296;28;20024;-48
2024/01/29 03:27:23;;;;;;;13.00;7.60;;;;;;;;;;5113474;28;20028;-51
2024/01/29 03:29:49;;;;;;;11.95;6.97;;;;;;;;;;5112238;28;20027;-50
2024/01/29 03:32:16;;;;;;;12.43;7.28;;;;;;;;;;5112321;28;20150;-53
2024/01/29 03:34:44;;;;;;;12.25;7.15;;;;;;;;;;5113074;28;20081;-48
2024/01/29 03:37:11;;;;;;;12.15;7.10;;;;;;;;;;5113008;28;20456;-47
2024/01/29 03:39:38;;;;;;;12.80;7.70;;;;;;;;;;5111475;28;20026;-50
2024/01/29 03:42:04;;;;;;;12.57;7.32;;;;;;;;;;5110709;28;20576;-50
2024/01/29 03:44:30;;;;;;;12.00;7.00;;;;;;;;;;5112240;28;20028;-49
2024/01/29 03:46:56;;;;;;;12.20;7.10;;;;;;;;;;5112270;28;20378;-50
2024/01/29 03:49:22;;;;;;;11.82;6.93;;;;;;;;;;5112125;28;20023;-49
2024/01/29 03:51:48;;;;;;;12.38;7.20;;;;;;;;;;5111620;28;20072;-50
2024/01/29 03:54:14;;;;;;;11.95;7.03;;;;;;;;;;5112139;28;20023;-51
2024/01/29 03:56:40;;;;;;;12.00;7.00;;;;;;;;;;5110915;28;20107;-53
2024/01/29 03:59:10;;;;;;;11.77;6.88;;;;;;;;;;5112211;28;20482;-51
2024/01/29 04:01:37;;;;;;;11.40;6.63;;;;;;;;;;5110407;28;20031;-50
2024/01/29 04:04:03;;;;;;;11.95;6.97;;;;;;;;;;5111981;28;20034;-53
2024/01/29 04:06:29;;;;;;;11.68;6.80;;;;;;;;;;5112052;28;20031;-50
2024/01/29 04:08:55;;;;;;;11.68;6.97;;;;;;;;;;5112094;28;20382;-49
2024/01/29 04:11:21;;;;;;;12.02;7.05;;;;;;;;;;5111282;28;20047;-52
2024/01/29 04:13:47;;;;;;;12.02;7.00;;;;;;;;;;5111893;28;20020;-52
2024/01/29 04:16:13;;;;;;;12.07;7.05;;;;;;;;;;5111861;28;20015;-49
2024/01/29 04:18:39;;;;;;;12.38;7.28;;;;;;;;;;5111971;28;20023;-52
2024/01/29 04:21:06;;;;;;;12.30;7.20;;;;;;;;;;5111516;28;20028;-51
2024/01/29 04:23:32;;;;;;;12.48;7.25;;;;;;;;;;5111103;28;20374;-49
2024/01/29 04:25:58;;;;;;;12.23;7.13;;;;;;;;;;5111997;28;20035;-48
2024/01/29 04:28:24;;;;;;;12.25;7.20;;;;;;;;;;5111767;28;20016;-53
2024/01/29 04:30:50;;;;;;;12.55;7.30;;;;;;;;;;5111609;28;20429;-49
2024/01/29 04:33:16;;;;;;;12.90;7.60;;;;;;;;;;5111135;28;20047;-52
2024/01/29 04:35:41;;;;;;;12.98;7.57;;;;;;;;;;5110279;28;20020;-50
2024/01/29 04:38:07;;;;;;;12.95;7.57;;;;;;;;;;5110273;28;20027;-52
2024/01/29 04:40:39;;;;;;;13.10;7.60;;;;;;;;;;5111452;28;20095;-50
2024/01/29 04:43:05;;;;;;;12.70;7.40;;;;;;;;;;5109251;28;20061;-51
2024/01/29 04:45:31;;;;;;;12.05;7.00;;;;;;;;;;5111414;28;20108;-48
2024/01/29 04:47:57;;;;;;;12.90;7.47;;;;;;;;;;5103663;28;20101;-51
2024/01/29 04:50:23;;;;;;;12.77;7.45;;;;;;;;;;5089502;28;20024;-56
2024/01/29 04:52:49;;;;;;;12.80;7.47;;;;;;;;;;5090022;28;20031;-50
2024/01/29 04:55:15;;;;;;;13.25;7.90;;;;;;;;;;5090926;28;20035;-49
2024/01/29 04:57:41;;;;;;;12.95;7.65;;;;;;;;;;5090958;28;20085;-50
2024/01/29 05:00:08;;;;;;;13.13;7.85;;;;;;;;;;5090630;28;20020;-48
2024/01/29 05:02:34;;;;;;;13.30;8.00;;;;;;;;;;5089725;28;20048;-54
2024/01/29 05:05:00;;;;;;;13.23;7.88;;;;;;;;;;5090667;28;20035;-50
2024/01/29 05:07:26;;;;;;;13.45;8.25;;;;;;;;;;5089401;28;20516;-52
2024/01/29 05:09:52;;;;;;;13.20;8.00;;;;;;;;;;5090655;28;20020;-51
2024/01/29 05:12:18;;;;;;;13.27;7.93;;;;;;;;;;5089653;28;20069;-54
2024/01/29 05:14:44;;;;;;;13.50;8.38;;;;;;;;;;5090352;28;20020;-54
2024/01/29 05:17:10;;;;;;;13.48;8.43;;;;;;;;;;5089621;28;20020;-51
2024/01/29 05:19:38;;;;;;;13.35;8.32;;;;;;;;;;5090042;28;20020;-52
2024/01/29 05:22:04;;;;;;;13.53;8.50;;;;;;;;;;5090154;28;20043;-47
2024/01/29 05:24:30;;;;;;;13.57;8.45;;;;;;;;;;5090209;28;20073;-48
2024/01/29 05:26:56;;;;;;;13.30;8.10;;;;;;;;;;5090504;28;20024;-51
2024/01/29 05:29:22;;;;;;;13.38;8.30;;;;;;;;;;5090622;28;20042;-50
2024/01/29 05:31:48;;;;;;;13.23;8.07;;;;;;;;;;5088545;28;20020;-52
2024/01/29 05:34:14;;;;;;;13.43;8.20;;;;;;;;;;5090283;28;20062;-48
2024/01/29 05:36:40;;;;;;;13.55;8.45;;;;;;;;;;5090344;28;20026;-51
2024/01/29 05:39:06;;;;;;;13.50;8.50;;;;;;;;;;5089088;28;20083;-52
2024/01/29 05:41:32;;;;;;;13.55;8.50;;;;;;;;;;5089598;28;20031;-50
2024/01/29 05:43:59;;;;;;;13.43;8.32;;;;;;;;;;5091718;28;20505;-53
2024/01/29 05:46:25;;;;;;;13.35;8.10;;;;;;;;;;5093284;28;20408;-49
2024/01/29 05:48:51;;;;;;;13.43;8.43;;;;;;;;;;5094807;28;20081;-52
2024/01/29 05:51:17;;;;;;;13.55;8.50;;;;;;;;;;5092478;28;20035;-50
2024/01/29 05:53:43;;;;;;;13.60;8.82;;;;;;;;;;5094306;28;20020;-51
2024/01/29 05:56:09;;;;;;;13.60;8.88;;;;;;;;;;5094532;28;20443;-50
2024/01/29 05:58:36;;;;;;;13.68;8.95;;;;;;;;;;5094202;28;20498;-52
2024/01/29 06:01:03;;;;;;;13.77;9.00;;;;;;;;;;5093728;28;20032;-48
2024/01/29 06:03:29;;;;;;;13.50;8.50;;;;;;;;;;5075335;28;20060;-48
2024/01/29 06:05:55;;;;;;;13.52;8.63;;;;;;;;;;5094282;28;20032;-48
2024/01/29 06:08:21;;;;;;;13.60;8.70;;;;;;;;;;5094519;28;20068;-52
2024/01/29 06:10:47;;;;;;;13.75;9.10;;;;;;;;;;5092306;28;20082;-52
2024/01/29 06:13:13;;;;;;;13.70;9.00;;;;;;;;;;5093534;28;20016;-50
2024/01/29 06:15:39;;;;;;;13.65;8.98;;;;;;;;;;5093969;28;20504;-52
2024/01/29 06:18:05;;;;;;;13.80;9.10;;;;;;;;;;5094358;28;20020;-50
2024/01/29 06:20:31;;;;;;;13.70;8.90;;;;;;;;;;5093772;28;20024;-52
2024/01/29 06:22:57;;;;;;;13.63;8.80;;;;;;;;;;5092754;28;20026;-52
2024/01/29 06:25:23;;;;;;;13.60;9.00;;;;;;;;;;5092080;28;20020;-48
2024/01/29 06:27:49;;;;;;;13.70;9.00;;;;;;;;;;5092359;28;20020;-51
2024/01/29 06:30:16;;;;;;;13.80;9.10;;;;;;;;;;5093511;28;20389;-52
2024/01/29 06:32:42;;;;;;;13.65;8.95;;;;;;;;;;5092374;28;20024;-50
2024/01/29 06:35:08;;;;;;;13.77;9.05;;;;;;;;;;5093335;28;20024;-51
2024/01/29 06:37:34;;;;;;;13.70;8.90;;;;;;;;;;5093464;28;20044;-54
2024/01/29 06:40:01;;;;;;;13.80;9.20;;;;;;;;;;5093205;28;20023;-52
2024/01/29 06:42:27;;;;;;;13.63;8.80;;;;;;;;;;5092434;28;20039;-51
2024/01/29 06:44:54;;;;;;;13.80;9.18;;;;;;;;;;5093429;28;20024;-51
2024/01/29 06:47:20;;;;;;;13.73;9.10;;;;;;;;;;5093267;28;20043;-50
2024/01/29 06:49:46;;;;;;;13.95;9.57;;;;;;;;;;5091639;28;20393;-50
2024/01/29 06:52:12;;;;;;;13.70;9.00;;;;;;;;;;5092472;28;20107;-50
2024/01/29 06:54:39;;;;;;;13.90;9.60;;;;;;;;;;5092428;28;20027;-51
2024/01/29 06:57:05;;;;;;;13.80;9.27;;;;;;;;;;5092246;28;20021;-50
2024/01/29 06:59:31;;;;;;;14.00;9.80;;;;;;;;;;5091958;28;20035;-49
2024/01/29 07:02:02;;;;;;;14.00;9.70;;;;;;;;;;5091020;28;20055;-53
2024/01/29 07:04:28;;;;;;;13.80;9.27;;;;;;;;;;5093009;22;20040;-56
2024/01/29 07:06:55;;;;;;;13.75;9.07;;;;;;;;;;5071096;28;20047;-55
2024/01/29 07:09:21;;;;;;;13.65;9.02;;;;;;;;;;5071063;28;20017;-58
2024/01/29 07:11:47;;;;;;;13.68;8.90;;;;;;;;;;5070330;28;20057;-57
2024/01/29 07:14:13;;;;;;;13.77;9.07;;;;;;;;;;5052809;28;20025;-58
2024/01/29 07:16:39;;;;;;;13.82;9.15;;;;;;;;;;5070674;28;20394;-60
2024/01/29 07:19:05;;;;;;;13.68;8.88;;;;;;;;;;5071070;28;20017;-54
2024/01/29 07:21:31;;;;;;;13.77;9.13;;;;;;;;;;5070325;28;20024;-52
2024/01/29 07:23:57;;;;;;;13.80;9.10;;;;;;;;;;5070461;28;20063;-57
2024/01/29 07:26:24;;;;;;;13.70;9.00;;;;;;;;;;5070826;28;20056;-56
2024/01/29 07:28:50;;;;;;;13.73;8.95;;;;;;;;;;5069172;28;20059;-56
2024/01/29 07:31:17;;;;;;;13.40;8.52;;;;;;;;;;5069850;28;20020;-53
2024/01/29 07:33:43;;;;;;;13.80;9.00;;;;;;;;;;5068995;28;20028;-56
2024/01/29 07:36:09;;;;;;;13.77;9.35;;;;;;;;;;5070222;28;20043;-55
2024/01/29 07:38:36;;;;;;;13.68;8.90;;;;;;;;;;5067580;28;20048;-58
2024/01/29 07:41:02;;;;;;;13.77;9.15;;;;;;;;;;5061397;28;20021;-55
2024/01/29 07:43:28;;;;;;;13.77;9.20;;;;;;;;;;5057871;28;20029;-57
2024/01/29 07:45:54;;;;;;;13.70;8.95;;;;;;;;;;5050206;28;20025;-58
2024/01/29 07:48:20;;;;;;;13.68;8.80;;;;;;;;;;5066930;28;20052;-53
2024/01/29 07:50:46;;;;;;;13.70;8.90;;;;;;;;;;5068701;28;20028;-58
2024/01/29 07:53:12;;;;;;;13.60;8.60;;;;;;;;;;5069344;28;20501;-57
2024/01/29 07:55:38;;;;;;;14.85;10.43;;;;;;;;;;5063180;28;20025;-58
2024/01/29 07:58:04;;;;;;;13.60;8.80;;;;;;;;;;5049964;28;20066;-59
2024/01/29 08:00:30;;;;;;;13.60;8.68;;;;;;;;;;5049962;28;20069;-59
2024/01/29 08:02:56;;;;;;;13.50;8.63;;;;;;;;;;5049156;28;20032;-57
2024/01/29 08:05:22;;;;;;;13.50;8.63;;;;;;;;;;5049969;28;20085;-59
2024/01/29 08:07:48;;;;;;;13.35;8.02;;;;;;;;;;5049745;28;20475;-57
2024/01/29 08:10:14;;;;;;;13.52;8.30;;;;;;;;;;5050207;28;20029;-56
2024/01/29 08:12:40;;;;;;;13.40;7.90;;;;;;;;;;5055456;28;20028;-56
2024/01/29 08:15:06;;;;;;;13.10;7.82;;;;;;;;;;5070117;28;20099;-57
2024/01/29 08:17:32;;;;;;;13.32;8.13;;;;;;;;;;5070370;28;20446;-59
2024/01/29 08:19:58;;;;;;;14.80;11.45;;;;;;;;;;5069604;28;20474;-57
2024/01/29 08:22:24;;;;;;;13.27;7.90;;;;;;;;;;5068990;28;20032;-57
2024/01/29 08:24:50;;;;;;;13.18;7.85;;;;;;;;;;5069515;28;20101;-57
2024/01/29 08:27:16;;;;;;;13.43;8.38;;;;;;;;;;5069439;28;20035;-56
2024/01/29 08:29:42;;;;;;;13.57;8.63;;;;;;;;;;5069388;28;20691;-56
2024/01/29 08:32:08;;;;;;;13.60;8.60;;;;;;;;;;5068383;28;20020;-55
2024/01/29 08:34:34;;;;;;;13.25;7.88;;;;;;;;;;5069120;28;20486;-55
2024/01/29 08:37:00;;;;;;;13.40;8.30;;;;;;;;;;5069194;28;20016;-56
2024/01/29 08:39:26;;;;;;;13.55;8.60;;;;;;;;;;5068914;28;20486;-52
2024/01/29 08:41:52;;;;;;;13.35;8.45;;;;;;;;;;5068348;28;20067;-49
2024/01/29 08:44:18;;;;;;;13.43;8.25;;;;;;;;;;5050745;28;20029;-47
2024/01/29 08:46:44;;;;;;;68.78;58.13;;;;;;;;;;5069068;28;20028;-50
2024/01/29 08:49:10;;;;;;;13.55;8.65;;;;;;;;;;5068778;28;20035;-51
2024/01/29 08:51:36;;;;;;;13.60;8.70;;;;;;;;;;5067940;28;20067;-50
2024/01/29 08:54:02;;;;;;;13.70;8.90;;;;;;;;;;5068842;28;20039;-48
2024/01/29 08:56:30;;;;;;;13.63;8.75;;;;;;;;;;5068633;28;20386;-51
2024/01/29 08:58:57;;;;;;;13.60;8.68;;;;;;;;;;5068738;28;20013;-50
2024/01/29 09:01:23;;;;;;;13.52;8.65;;;;;;;;;;5067754;28;20066;-46
2024/01/29 09:03:49;;;;;;;13.50;8.55;;;;;;;;;;5068674;28;20120;-48
2024/01/29 09:06:15;;;;;;;13.52;8.52;;;;;;;;;;5068912;28;20628;-51
2024/01/29 09:08:44;;;;;;;13.57;8.55;;;;;;;;;;5076244;28;20199;-52
2024/01/29 09:11:10;;;;;;;13.60;8.70;;;;;;;;;;5074507;28;20056;-51
2024/01/29 09:13:37;;;;;;;13.73;9.00;;;;;;;;;;5065353;28;20033;-51
2024/01/29 09:16:03;;;;;;;13.68;8.85;;;;;;;;;;5049446;28;20033;-56
2024/01/29 09:18:29;;;;;;;13.60;8.70;;;;;;;;;;5048066;28;20049;-56
2024/01/29 09:20:56;;;;;;;13.60;8.70;;;;;;;;;;5030553;28;20068;-55
2024/01/29 09:23:22;;;;;;;13.73;8.95;;;;;;;;;;5047926;28;20032;-57
2024/01/29 09:25:48;;;;;;;13.73;9.02;;;;;;;;;;5048381;28;20394;-51
2024/01/29 09:28:13;;;;;;;13.73;8.98;;;;;;;;;;5048583;28;20037;-55
2024/01/29 09:30:39;;;;;;;14.10;9.52;;;;;;;;;;5028800;28;20033;-56
2024/01/29 09:33:06;;;;;;;13.68;8.80;;;;;;;;;;5046558;28;20168;-54
2024/01/29 09:35:32;;;;;;;13.63;8.82;;;;;;;;;;5029094;28;20108;-54
2024/01/29 09:37:58;;;;;;;13.90;9.50;;;;;;;;;;5047127;28;20026;-55
2024/01/29 09:40:24;;;;;;;14.52;9.70;;;;;;;;;;5059716;28;20028;-51
2024/01/29 09:42:50;;;;;;;14.75;11.07;;;;;;;;;;5065885;28;20158;-53
2024/01/29 09:45:22;;;;;;;14.10;9.20;;;;;;;;;;5067386;28;20039;-53
2024/01/29 09:47:49;;;;;;;13.82;9.38;;;;;;;;;;5068431;28;20024;-55
2024/01/29 09:50:16;;;;;;;13.85;9.27;;;;;;;;;;5068375;28;20035;-57
2024/01/29 09:52:43;;;;;;;14.20;10.13;;;;;;;;;;5067547;28;20032;-56
2024/01/29 09:55:11;;;;;;;13.88;9.50;;;;;;;;;;5068330;28;20021;-57
2024/01/29 09:57:38;;;;;;;13.90;9.40;;;;;;;;;;5068366;28;20044;-57
2024/01/29 10:00:04;;;;;;;13.82;9.40;;;;;;;;;;5068195;28;20095;-57
2024/01/29 10:02:31;;;;;;;13.75;9.10;;;;;;;;;;5067409;28;20028;-52
2024/01/29 10:04:57;;;;;;;13.90;9.40;;;;;;;;;;5067936;28;20215;-56
2024/01/29 10:07:23;;;;;;;14.70;9.73;;;;;;;;;;5068065;28;20029;-57
2024/01/29 10:09:52;;;;;;;13.75;9.25;;;;;;;;;;5050155;28;20073;-55
2024/01/29 10:12:22;;;;;;;14.00;10.00;;;;;;;;;;5067175;28;20029;-55
2024/01/29 10:14:48;;;;;;;14.20;10.10;;;;;;;;;;5068070;28;20040;-53
2024/01/29 10:17:14;;;;;;;13.88;9.48;;;;;;;;;;5067945;28;20488;-55
2024/01/29 10:19:43;;;;;;;13.80;9.18;;;;;;;;;;5067510;28;20027;-53
2024/01/29 10:22:15;;;;;;;13.95;9.80;;;;;;;;;;5067036;28;20031;-53
2024/01/29 10:24:41;;;;;;;13.85;9.55;;;;;;;;;;5067749;28;20077;-57
2024/01/29 10:27:08;;;;;;;13.70;9.10;;;;;;;;;;5067899;28;20028;-54
2024/01/29 10:29:47;;;;;;;14.30;9.88;;;;;;;;;;5068379;28;20029;-57
2024/01/29 10:32:14;;;;;;;13.88;9.48;;;;;;;;;;5069817;28;20115;-58
2024/01/29 10:34:40;;;;;;;13.85;9.43;;;;;;;;;;5071265;28;20068;-54
2024/01/29 10:37:07;;;;;;;14.38;9.43;;;;;;;;;;5071430;28;20359;-54
2024/01/29 10:39:34;;;;;;;13.98;9.15;;;;;;;;;;5071383;28;20020;-55
2024/01/29 10:42:02;;;;;;;13.80;9.20;;;;;;;;;;5052722;28;20032;-56
2024/01/29 10:44:35;;;;;;;13.68;8.90;;;;;;;;;;5071415;28;20028;-55
2024/01/29 10:47:05;;;;;;;14.90;10.02;;;;;;;;;;5070357;28;20462;-53
2024/01/29 10:49:32;;;;;;;13.82;9.30;;;;;;;;;;5069767;28;20036;-55
2024/01/29 10:51:58;;;;;;;13.77;9.20;;;;;;;;;;5070206;28;20086;-55
2024/01/29 10:54:24;;;;;;;14.00;9.90;;;;;;;;;;5070840;28;20421;-54
2024/01/29 10:56:51;;;;;;;13.68;8.90;;;;;;;;;;5070948;28;20386;-52
2024/01/29 10:59:20;;;;;;;13.88;9.40;;;;;;;;;;5070884;28;20032;-56
2024/01/29 11:01:46;;;;;;;13.75;8.95;;;;;;;;;;5070309;28;20028;-56
2024/01/29 11:04:16;;;;;;;13.75;9.15;;;;;;;;;;5069586;28;20047;-52
2024/01/29 11:07:05;;;;;;;13.82;9.30;;;;;;;;;;5070690;28;20538;-53
2024/01/29 11:09:32;;;;;;;13.60;8.65;;;;;;;;;;5070916;28;20025;-55
2024/01/29 11:11:58;;;;;;;14.00;9.20;;;;;;;;;;5069701;28;20036;-56
2024/01/29 11:14:24;;;;;;;13.70;9.00;;;;;;;;;;5070642;28;20482;-51
2024/01/29 11:16:53;;;;;;;13.80;9.30;;;;;;;;;;5069227;28;20032;-54
2024/01/29 11:19:24;;;;;;;13.95;9.63;;;;;;;;;;5060425;28;20025;-55
2024/01/29 11:21:53;;;;;;;13.85;9.40;;;;;;;;;;5050326;28;20028;-57
2024/01/29 11:24:22;;;;;;;13.77;9.40;;;;;;;;;;5050561;28;20024;-55
2024/01/29 11:26:48;;;;;;;13.82;9.38;;;;;;;;;;5050249;28;20025;-56
2024/01/29 11:29:24;;;;;;;13.82;9.40;;;;;;;;;;5050568;28;20050;-55
2024/01/29 11:31:53;;;;;;;13.95;9.57;;;;;;;;;;5062708;28;20091;-57
2024/01/29 11:34:27;;;;;;;13.90;9.45;;;;;;;;;;5070178;28;20020;-53
2024/01/29 11:36:54;;;;;;;14.10;9.77;;;;;;;;;;5070792;28;20035;-51
2024/01/29 11:39:22;;;;;;;14.02;9.93;;;;;;;;;;5070648;28;20021;-51
2024/01/29 11:41:49;;;;;;;14.15;10.13;;;;;;;;;;5069224;28;20025;-52
2024/01/29 11:44:18;;;;;;;13.90;9.60;;;;;;;;;;5070412;28;20148;-53
2024/01/29 11:46:44;;;;;;;14.00;9.65;;;;;;;;;;5070346;28;20101;-53
2024/01/29 11:49:10;;;;;;;13.90;9.50;;;;;;;;;;5069941;28;20028;-54
2024/01/29 11:51:38;;;;;;;13.95;9.70;;;;;;;;;;5069481;28;20517;-57
2024/01/29 11:54:04;;;;;;;14.38;10.15;;;;;;;;;;5070056;28;20028;-56
2024/01/29 11:56:30;;;;;;;14.20;10.40;;;;;;;;;;5065087;28;20025;-56
2024/01/29 11:59:04;;;;;;;14.10;10.20;;;;;;;;;;5055403;28;20029;-53
2024/01/29 12:01:33;;;;;;;14.20;10.30;;;;;;;;;;5049546;28;20406;-55
2024/01/29 12:03:59;;;;;;;14.20;10.25;;;;;;;;;;5050134;28;20037;-57
2024/01/29 12:06:25;;;;;;;16.23;11.30;;;;;;;;;;5050157;28;20040;-61
2024/01/29 12:08:57;;;;;;;14.30;10.68;;;;;;;;;;5050128;28;20052;-56
2024/01/29 12:11:24;;;;;;;14.30;10.98;;;;;;;;;;5048944;28;20048;-54
2024/01/29 12:13:53;;;;;;;14.10;10.00;;;;;;;;;;5049960;28;20025;-54
2024/01/29 12:16:19;;;;;;;;;;;;;;;;;;5050075;28;20043;-54
2024/01/29 12:18:45;;;;;;;14.20;10.38;;;;;;;;;;5058955;28;20289;-54
2024/01/29 12:21:11;;;;;;;17.85;10.93;;;;;;;;;;5069251;28;20033;-55
2024/01/29 12:23:38;;;;;;;14.02;9.98;;;;;;;;;;5069140;28;20474;-57
2024/01/29 12:26:04;;;;;;;17.23;12.32;;;;;;;;;;5069513;28;20032;-57
2024/01/29 12:28:30;;;;;;;14.13;10.27;;;;;;;;;;5069306;28;20075;-57
2024/01/29 12:30:56;;;;;;;14.15;10.18;;;;;;;;;;5068892;28;20063;-55
2024/01/29 12:33:29;;;;;;;14.15;10.23;;;;;;;;;;5060558;28;20040;-55
2024/01/29 12:35:55;;;;;;;13.95;9.90;;;;;;;;;;5059558;28;20024;-58
2024/01/29 12:38:25;;;;;;;14.20;10.32;;;;;;;;;;5058275;28;20475;-54
2024/01/29 12:40:57;;;;;;;16.70;12.45;;;;;;;;;;5060169;28;20502;-51
2024/01/29 12:43:29;;;;;;;14.20;10.50;;;;;;;;;;5058027;28;20024;-53
2024/01/29 12:46:14;;;;;;;14.30;10.70;;;;;;;;;;5059563;28;20023;-52
2024/01/29 12:48:43;;;;;;;17.00;10.95;;;;;;;;;;5049145;28;20025;-58
2024/01/29 12:51:13;;;;;;;14.40;10.63;;;;;;;;;;5048761;28;20048;-53
2024/01/29 12:53:42;;;;;;;14.18;10.25;;;;;;;;;;5047587;28;20473;-55
2024/01/29 12:56:08;;;;;;;15.75;11.45;;;;;;;;;;5052987;28;20025;-55
2024/01/29 12:58:34;;;;;;;14.27;10.70;;;;;;;;;;5065405;28;20032;-54
2024/01/29 13:01:00;;;;;;;14.18;10.40;;;;;;;;;;5068676;28;20460;-54
2024/01/29 13:06:02;;;;;;;14.70;11.13;;;;;;;;;;5048245;28;20045;-49
2024/01/29 13:08:28;;;;;;;14.90;12.10;;;;;;;;;;5049937;28;20045;-56
2024/01/29 13:10:54;;;;;;;14.77;11.85;;;;;;;;;;5049986;28;20139;-56
2024/01/29 13:13:20;;;;;;;14.80;11.90;;;;;;;;;;5049544;28;20518;-56
2024/01/29 13:15:46;;;;;;;14.70;11.77;;;;;;;;;;5050074;28;20025;-55
2024/01/29 13:18:12;;;;;;;14.75;11.90;;;;;;;;;;5049877;28;20410;-55
2024/01/29 13:20:40;;;;;;;15.00;11.70;;;;;;;;;;5048490;28;20048;-55
2024/01/29 13:23:09;;;;;;;14.70;11.75;;;;;;;;;;5049507;28;20025;-55
2024/01/29 13:25:35;;;;;;;14.77;12.00;;;;;;;;;;5049934;28;20051;-55
2024/01/29 13:28:04;;;;;;;14.70;11.75;;;;;;;;;;5049947;28;20017;-52
2024/01/29 13:30:30;;;;;;;14.68;11.65;;;;;;;;;;5049775;28;20017;-52
2024/01/29 13:32:56;;;;;;;14.68;11.68;;;;;;;;;;5049088;28;20504;-57
2024/01/29 13:35:22;;;;;;;15.30;12.23;;;;;;;;;;5049869;28;20028;-55
2024/01/29 13:37:49;;;;;;;14.75;11.80;;;;;;;;;;5048531;28;20036;-57
2024/01/29 13:40:15;;;;;;;14.77;11.73;;;;;;;;;;5049603;28;20055;-52
2024/01/29 13:42:41;;;;;;;14.75;11.80;;;;;;;;;;5048869;28;20032;-53
2024/01/29 13:45:07;;;;;;;22.58;15.50;;;;;;;;;;5049866;28;20026;-54
2024/01/29 13:47:33;;;;;;;14.80;11.90;;;;;;;;;;5049938;28;20033;-52
2024/01/29 13:50:01;;;;;;;14.70;11.80;;;;;;;;;;5049760;28;20122;-56
2024/01/29 13:52:27;;;;;;;14.85;11.82;;;;;;;;;;5047806;28;20403;-53
2024/01/29 13:54:53;;;;;;;14.70;11.77;;;;;;;;;;5049233;28;20039;-51
2024/01/29 13:57:19;;;;;;;14.77;11.60;;;;;;;;;;5048739;28;20021;-53
2024/01/29 13:59:45;;;;;;;14.73;11.63;;;;;;;;;;5049614;28;20052;-51
2024/01/29 14:02:11;;;;;;;14.70;11.73;;;;;;;;;;5048892;28;20021;-49
2024/01/29 14:04:37;;;;;;;14.68;11.63;;;;;;;;;;5050139;28;20284;-51
2024/01/29 14:07:06;;;;;;;14.60;11.38;;;;;;;;;;5053954;28;20031;-51
2024/01/29 14:09:32;;;;;;;14.60;11.38;;;;;;;;;;5054598;28;20376;-53
2024/01/29 14:11:58;;;;;;;14.52;11.20;;;;;;;;;;5052965;28;20105;-52
2024/01/29 14:14:25;;;;;;;14.70;11.80;;;;;;;;;;5053250;28;20025;-53
2024/01/29 14:16:51;;;;;;;15.00;12.45;;;;;;;;;;5035305;28;20028;-52
2024/01/29 14:19:17;;;;;;;14.73;11.80;;;;;;;;;;5053146;28;20481;-54
2024/01/29 14:21:43;;;;;;;14.60;11.40;;;;;;;;;;5034266;28;20025;-53
2024/01/29 14:24:09;;;;;;;14.60;11.40;;;;;;;;;;5053195;28;20040;-55
2024/01/29 14:26:37;;;;;;;14.60;11.38;;;;;;;;;;5052905;28;20032;-54